Main page
METAR-TAF:

METAR-TAF

Airports :

Riyadh, Saudi Arabia

Riyadh Air Base

latitude: 24-43N, longitude: 046-44E, elevation: 635 m

METAR: missing

Time: 19:22 (16:22 UTC)

Forecast

The report was made 5 hours and 22 minutes ago, at 11:00 UTC
Forecast valid from 18 at 12 UTC to 19 at 18 UTC
Wind 12 kt from the East/Northeast
Visibility 10 km or more
no clouds below 1500 m and no cumulonimbus
Becoming
from 18 at 18 UTC to 18 at 20 UTC
Wind 3 kt from variable directions

TAF: OERY 181100Z 1812/1918 06012KT CAVOK BECMG 1818/1820 VRB03KT

Weather observations and forecasts of more than 4000 airports (METAR and TAF reports).

The available stations are represented by yellow and red dots on the map.

Hover mouse over dot to see the name of the station.

Then click to see weather observations and forecasts.

To change the map : click on the green buttons with a black cross to zoom in, on the green button with a dash to zoom out, or on the green arrows for adjacent maps.


METAR-TAF: